createdAt,value
2018-06-02T00:00:46.960Z,96.50
2018-06-02T00:03:14.471Z,96.50
2018-06-02T00:05:42.722Z,96.60
2018-06-02T00:08:10.228Z,96.60
2018-06-02T00:10:37.726Z,96.60
2018-06-02T00:13:05.244Z,96.70
2018-06-02T00:15:32.852Z,96.90
2018-06-02T00:18:00.876Z,96.90
2018-06-02T00:20:29.150Z,97.00
2018-06-02T00:22:57.420Z,97.10
2018-06-02T00:25:24.925Z,97.10
2018-06-02T00:27:53.168Z,97.00
2018-06-02T00:30:21.448Z,97.50
2018-06-02T00:32:49.727Z,97.30
2018-06-02T00:35:17.242Z,97.10
2018-06-02T00:37:44.748Z,97.20
2018-06-02T00:40:12.285Z,97.20
2018-06-02T00:42:39.793Z,97.30
2018-06-02T00:45:08.080Z,97.10
2018-06-02T00:47:35.824Z,97.10
2018-06-02T00:50:04.250Z,97.00
2018-06-02T00:52:31.764Z,97.10
2018-06-02T00:55:08.661Z,97.10
2018-06-02T00:57:36.945Z,97.00
2018-06-02T01:00:05.202Z,97.00
2018-06-02T01:02:32.824Z,97.00
2018-06-02T01:05:00.346Z,97.00
2018-06-02T01:07:28.647Z,97.10
2018-06-02T01:09:57.043Z,97.20
2018-06-02T01:12:24.554Z,97.10
2018-06-02T01:14:52.152Z,97.40
2018-06-02T01:17:20.497Z,97.00
2018-06-02T01:19:49.151Z,96.90
2018-06-02T01:22:16.665Z,96.90
2018-06-02T01:24:44.170Z,96.70
2018-06-02T01:27:11.974Z,96.70
2018-06-02T01:29:39.511Z,96.70
2018-06-02T01:32:07.877Z,96.70
2018-06-02T01:34:36.478Z,96.60
2018-06-02T01:37:04.139Z,96.60
2018-06-02T01:39:31.681Z,96.60
2018-06-02T01:42:00.095Z,96.60
2018-06-02T01:44:27.684Z,96.60
2018-06-02T01:46:55.424Z,96.60
2018-06-02T01:49:23.032Z,96.70
2018-06-02T01:51:50.541Z,96.60
2018-06-02T01:54:19.857Z,96.60
2018-06-02T01:56:48.349Z,96.50
2018-06-02T01:59:16.052Z,96.40
2018-06-02T02:01:44.876Z,96.30
2018-06-02T02:04:13.169Z,96.30
2018-06-02T02:06:41.828Z,96.30
2018-06-02T02:09:09.605Z,96.30
2018-06-02T02:11:38.100Z,96.30
2018-06-02T02:14:06.392Z,96.20
2018-06-02T02:16:34.773Z,96.30
2018-06-02T02:19:03.053Z,96.20
2018-06-02T02:21:33.197Z,96.30
2018-06-02T02:24:01.455Z,96.20
2018-06-02T02:26:29.721Z,96.30
2018-06-02T02:28:57.218Z,96.30
2018-06-02T02:31:24.715Z,96.20
2018-06-02T02:33:52.225Z,96.00
2018-06-02T02:36:20.793Z,95.90
2018-06-02T02:38:48.284Z,95.80
2018-06-02T02:41:17.260Z,95.90
2018-06-02T02:43:44.825Z,95.90
2018-06-02T02:46:12.401Z,96.20
2018-06-02T02:48:40.807Z,95.90
2018-06-02T02:51:08.375Z,95.80
2018-06-02T02:53:35.882Z,95.80
2018-06-02T02:56:03.417Z,95.90
2018-06-02T02:58:30.935Z,95.80
2018-06-02T03:00:59.227Z,95.80
2018-06-02T03:03:27.628Z,95.80
2018-06-02T03:05:55.527Z,95.80
2018-06-02T03:08:23.123Z,95.80
2018-06-02T03:10:51.397Z,95.80
2018-06-02T03:13:19.016Z,95.80
2018-06-02T03:15:46.515Z,95.80
2018-06-02T03:18:14.120Z,95.80
2018-06-02T03:20:42.435Z,95.90
2018-06-02T03:23:09.955Z,95.90
2018-06-02T03:25:38.258Z,95.60
2018-06-02T03:28:05.817Z,95.60
2018-06-02T03:30:34.191Z,95.50
2018-06-02T03:33:02.489Z,95.60
2018-06-02T03:35:30.781Z,95.40
2018-06-02T03:37:58.538Z,95.20
2018-06-02T03:40:26.079Z,95.20
2018-06-02T03:42:54.522Z,95.00
2018-06-02T03:45:22.060Z,95.00
2018-06-02T03:47:49.595Z,95.00
2018-06-02T03:50:17.847Z,95.00
2018-06-02T03:52:46.057Z,94.90
2018-06-02T03:55:14.323Z,94.80
2018-06-02T03:57:41.965Z,94.80
2018-06-02T04:00:09.553Z,94.60
2018-06-02T04:02:37.057Z,94.40
2018-06-02T04:05:04.569Z,94.30
2018-06-02T04:07:32.247Z,94.50
2018-06-02T04:10:00.638Z,94.00
2018-06-02T04:12:28.932Z,94.20
2018-06-02T04:14:57.949Z,94.00
2018-06-02T04:17:25.514Z,94.00
2018-06-02T04:19:53.032Z,94.00
2018-06-02T04:22:20.675Z,94.00
2018-06-02T04:24:48.995Z,94.00
2018-06-02T04:27:17.292Z,94.20
2018-06-02T04:29:44.842Z,94.20
2018-06-02T04:32:13.092Z,94.20
2018-06-02T04:34:40.596Z,94.20
2018-06-02T04:37:09.034Z,94.20
2018-06-02T04:39:36.635Z,94.10
2018-06-02T04:42:04.457Z,94.00
2018-06-02T04:44:32.418Z,93.70
2018-06-02T04:47:00.078Z,93.30
2018-06-02T04:49:27.622Z,93.30
2018-06-02T04:51:55.892Z,93.30
2018-06-02T04:54:24.393Z,93.30
2018-06-02T04:56:52.716Z,93.20
2018-06-02T04:59:20.229Z,93.20
2018-06-02T05:01:47.784Z,93.20
2018-06-02T05:04:16.055Z,93.30
2018-06-02T05:06:44.265Z,93.20
2018-06-02T05:09:11.836Z,93.00
2018-06-02T05:11:39.389Z,93.20
2018-06-02T05:14:07.426Z,93.20
2018-06-02T05:16:36.552Z,93.30
2018-06-02T05:19:04.870Z,93.30
2018-06-02T05:21:32.834Z,93.30
2018-06-02T05:24:00.345Z,93.30
2018-06-02T05:26:27.941Z,93.10
2018-06-02T05:28:56.271Z,93.30
2018-06-02T05:31:23.810Z,93.30
2018-06-02T05:33:51.307Z,93.40
2018-06-02T05:36:19.625Z,93.40
2018-06-02T05:38:48.259Z,93.40
2018-06-02T05:41:16.493Z,93.30
2018-06-02T05:43:45.172Z,93.40
2018-06-02T05:46:13.345Z,93.70
2018-06-02T05:48:40.828Z,93.40
2018-06-02T05:51:09.097Z,93.10
2018-06-02T05:53:36.803Z,93.10
2018-06-02T05:56:04.288Z,93.00
2018-06-02T05:58:31.798Z,93.00
2018-06-02T06:01:00.090Z,92.90
2018-06-02T06:03:28.354Z,92.90
2018-06-02T06:05:55.957Z,92.90
2018-06-02T06:08:23.486Z,92.90
2018-06-02T06:10:51.802Z,93.00
2018-06-02T06:13:20.949Z,92.60
2018-06-02T06:15:48.565Z,92.60
2018-06-02T06:18:17.119Z,92.50
2018-06-02T06:20:44.615Z,92.30
2018-06-02T06:23:12.127Z,92.10
2018-06-02T06:25:40.453Z,92.00
2018-06-02T06:28:08.407Z,92.00
2018-06-02T06:30:37.035Z,92.20
2018-06-02T06:33:04.588Z,91.90
2018-06-02T06:35:32.106Z,91.80
2018-06-02T06:37:59.802Z,91.60
2018-06-02T06:40:28.097Z,91.40
2018-06-02T06:42:55.753Z,91.40
2018-06-02T06:45:23.257Z,91.20
2018-06-02T06:47:50.896Z,91.10
2018-06-02T06:50:18.460Z,90.90
2018-06-02T06:52:46.045Z,90.70
2018-06-02T06:55:13.561Z,90.30
2018-06-02T06:57:41.947Z,90.00
2018-06-02T07:00:09.399Z,90.00
2018-06-02T07:02:37.683Z,89.50
2018-06-02T07:05:06.487Z,89.10
2018-06-02T07:07:34.789Z,87.90
2018-06-02T07:10:02.336Z,87.90
2018-06-02T07:12:29.895Z,88.20
2018-06-02T07:14:58.201Z,86.40
2018-06-02T07:17:26.235Z,86.30
2018-06-02T07:19:53.817Z,85.90
2018-06-02T07:22:22.223Z,83.60
2018-06-02T07:24:49.814Z,83.50
2018-06-02T07:27:17.337Z,82.40
2018-06-02T07:29:44.839Z,82.50
2018-06-02T07:32:12.360Z,81.10
2018-06-02T07:34:40.618Z,80.20
2018-06-02T07:37:08.893Z,80.20
2018-06-02T07:39:37.929Z,79.70
2018-06-02T07:42:05.497Z,79.70
2018-06-02T07:44:32.996Z,79.90
2018-06-02T07:47:01.307Z,79.80
2018-06-02T07:49:29.629Z,79.80
2018-06-02T07:51:57.193Z,79.80
2018-06-02T07:54:24.703Z,80.40
2018-06-02T07:56:52.209Z,80.30
2018-06-02T07:59:20.090Z,79.60
2018-06-02T08:01:47.591Z,79.50
2018-06-02T08:04:15.088Z,79.20
2018-06-02T08:06:43.495Z,79.00
2018-06-02T08:09:11.760Z,77.80
2018-06-02T08:11:40.173Z,77.50
2018-06-02T08:14:09.280Z,77.50
2018-06-02T08:16:37.453Z,76.80
2018-06-02T08:19:04.963Z,75.90
2018-06-02T08:21:32.778Z,74.50
2018-06-02T08:24:00.297Z,73.70
2018-06-02T08:26:28.774Z,72.90
2018-06-02T08:28:56.286Z,72.40
2018-06-02T08:31:23.813Z,73.30
2018-06-02T08:33:51.419Z,74.10
2018-06-02T08:36:18.925Z,75.00
2018-06-02T08:38:46.932Z,75.40
2018-06-02T08:41:15.194Z,74.80
2018-06-02T08:43:42.692Z,74.70
2018-06-02T08:46:10.183Z,75.30
2018-06-02T08:48:37.696Z,74.90
2018-06-02T08:51:05.992Z,75.00
2018-06-02T08:53:34.298Z,75.10
2018-06-02T08:56:02.402Z,74.90
2018-06-02T08:58:29.937Z,74.10
2018-06-02T09:00:57.504Z,74.00
2018-06-02T09:03:25.052Z,73.70
2018-06-02T09:05:52.904Z,73.90
2018-06-02T09:08:21.196Z,73.70
2018-06-02T09:10:48.724Z,73.70
2018-06-02T09:13:17.031Z,73.80
2018-06-02T09:15:45.390Z,73.30
2018-06-02T09:18:14.587Z,73.30
2018-06-02T09:20:42.100Z,73.30
2018-06-02T09:23:09.619Z,73.00
2018-06-02T09:25:37.960Z,72.40
2018-06-02T09:28:05.471Z,72.30
2018-06-02T09:30:32.976Z,71.70
2018-06-02T09:33:00.712Z,71.10
2018-06-02T09:35:28.993Z,68.60
2018-06-02T09:37:57.291Z,68.50
2018-06-02T09:40:25.876Z,68.10
2018-06-02T09:42:53.736Z,68.00
2018-06-02T09:45:22.024Z,68.20
2018-06-02T09:47:50.321Z,68.90
2018-06-02T09:50:18.478Z,68.80
2018-06-02T09:52:46.745Z,68.00
2018-06-02T09:55:14.227Z,68.00
2018-06-02T09:57:42.521Z,68.70
2018-06-02T10:00:10.750Z,68.70
2018-06-02T10:02:38.252Z,68.50
2018-06-02T10:05:06.495Z,69.00
2018-06-02T10:07:34.164Z,68.90
2018-06-02T10:10:01.788Z,69.90
2018-06-02T10:12:29.298Z,71.00
2018-06-02T10:14:56.835Z,71.50
2018-06-02T10:17:24.896Z,72.70
2018-06-02T10:19:52.375Z,73.10
2018-06-02T10:22:21.753Z,74.20
2018-06-02T10:24:49.345Z,73.70
2018-06-02T10:27:16.872Z,74.60
2018-06-02T10:29:45.180Z,75.20
2018-06-02T10:32:13.578Z,75.20
2018-06-02T10:34:41.991Z,75.70
2018-06-02T10:37:09.597Z,75.70
2018-06-02T10:39:37.117Z,76.10
2018-06-02T10:42:06.129Z,76.50
2018-06-02T10:44:35.033Z,75.70
2018-06-02T10:47:03.313Z,76.10
2018-06-02T10:49:31.579Z,75.70
2018-06-02T10:51:59.897Z,75.50
2018-06-02T10:54:27.395Z,75.20
2018-06-02T10:56:55.224Z,75.50
2018-06-02T10:59:23.695Z,75.60
2018-06-02T11:01:52.207Z,75.50
2018-06-02T11:04:19.753Z,75.50
2018-06-02T11:06:47.277Z,75.50
2018-06-02T11:09:14.799Z,75.80
2018-06-02T11:11:42.372Z,76.00
2018-06-02T11:14:09.932Z,75.80
2018-06-02T11:16:37.492Z,75.80
2018-06-02T11:19:05.140Z,75.70
2018-06-02T11:21:33.522Z,75.70
2018-06-02T11:24:01.906Z,75.20
2018-06-02T11:26:30.180Z,73.90
2018-06-02T11:28:58.565Z,73.00
2018-06-02T11:31:27.205Z,73.60
2018-06-02T11:33:54.837Z,73.50
2018-06-02T11:36:23.198Z,73.20
2018-06-02T11:38:50.721Z,73.30
2018-06-02T11:41:18.221Z,73.20
2018-06-02T11:43:46.513Z,73.30
2018-06-02T11:46:15.017Z,72.20
2018-06-02T11:48:45.063Z,72.80
2018-06-02T11:51:13.507Z,72.30
2018-06-02T11:53:41.884Z,71.50
2018-06-02T11:56:10.252Z,70.50
2018-06-02T11:58:39.710Z,71.00
2018-06-02T12:01:07.568Z,70.50
2018-06-02T12:03:35.931Z,70.40
2018-06-02T12:06:04.272Z,70.70
2018-06-02T12:08:32.082Z,70.70
2018-06-02T12:11:00.395Z,71.10
2018-06-02T12:13:28.026Z,71.10
2018-06-02T12:15:57.877Z,72.00
2018-06-02T12:18:25.449Z,72.10
2018-06-02T12:20:54.030Z,73.00
2018-06-02T12:23:21.520Z,72.40
2018-06-02T12:25:49.167Z,71.80
2018-06-02T12:28:16.679Z,71.70
2018-06-02T12:30:45.425Z,72.10
2018-06-02T12:33:14.207Z,72.00
2018-06-02T12:35:41.723Z,72.30
2018-06-02T12:38:09.986Z,73.40
2018-06-02T12:40:37.891Z,72.70
2018-06-02T12:43:05.407Z,73.20
2018-06-02T12:45:33.076Z,73.00
2018-06-02T12:48:00.603Z,72.70
2018-06-02T12:50:28.353Z,72.40
2018-06-02T12:52:56.652Z,74.10
2018-06-02T12:55:24.964Z,74.00
2018-06-02T12:57:52.454Z,74.00
2018-06-02T13:00:19.987Z,72.70
2018-06-02T13:02:47.521Z,72.60
2018-06-02T13:05:15.211Z,72.50
2018-06-02T13:07:42.739Z,72.50
2018-06-02T13:10:11.128Z,72.60
2018-06-02T13:12:39.420Z,72.80
2018-06-02T13:15:06.967Z,72.80
2018-06-02T13:17:35.303Z,71.40
2018-06-02T13:20:02.827Z,71.30
2018-06-02T13:22:30.325Z,70.70
2018-06-02T13:24:57.847Z,71.10
2018-06-02T13:27:25.356Z,70.70
2018-06-02T13:29:52.864Z,70.70
2018-06-02T13:32:21.171Z,71.10
2018-06-02T13:34:50.655Z,71.10
2018-06-02T13:37:19.561Z,71.30
2018-06-02T13:39:47.238Z,71.20
2018-06-02T13:42:14.723Z,71.10
2018-06-02T13:44:42.376Z,70.50
2018-06-02T13:47:09.883Z,70.90
2018-06-02T13:49:39.195Z,70.40
2018-06-02T13:52:06.716Z,70.70
2018-06-02T13:54:34.221Z,70.80
2018-06-02T13:57:02.507Z,70.10
2018-06-02T13:59:30.007Z,70.10
2018-06-02T14:01:57.567Z,70.00
2018-06-02T14:04:25.116Z,69.70
2018-06-02T14:06:53.371Z,69.20
2018-06-02T14:09:20.908Z,69.60
2018-06-02T14:11:49.709Z,70.20
2018-06-02T14:14:17.241Z,69.90
2018-06-02T14:16:46.263Z,69.50
2018-06-02T14:19:13.763Z,69.50
2018-06-02T14:21:41.362Z,70.00
2018-06-02T14:24:08.854Z,69.40
2018-06-02T14:26:36.364Z,69.50
2018-06-02T14:29:04.627Z,69.70
2018-06-02T14:31:32.160Z,69.70
2018-06-02T14:34:00.579Z,69.40
2018-06-02T14:36:28.879Z,69.20
2018-06-02T14:38:57.149Z,68.70
2018-06-02T14:41:26.157Z,68.80
2018-06-02T14:43:53.676Z,68.80
2018-06-02T14:46:21.385Z,68.60
2018-06-02T14:48:49.685Z,68.50
2018-06-02T14:51:17.252Z,68.50
2018-06-02T14:53:44.813Z,69.00
2018-06-02T14:56:13.015Z,69.50
2018-06-02T14:58:40.562Z,69.30
2018-06-02T15:01:08.087Z,69.00
2018-06-02T15:03:37.673Z,68.60
2018-06-02T15:06:07.039Z,68.40
2018-06-02T15:08:35.406Z,70.00
2018-06-02T15:11:04.548Z,70.00
2018-06-02T15:13:32.639Z,70.50
2018-06-02T15:16:00.504Z,69.70
2018-06-02T15:18:30.327Z,70.00
2018-06-02T15:20:58.201Z,69.70
2018-06-02T15:23:25.788Z,69.80
2018-06-02T15:25:54.834Z,70.00
2018-06-02T15:28:22.449Z,70.20
2018-06-02T15:30:50.751Z,70.60
2018-06-02T15:33:19.807Z,70.90
2018-06-02T15:35:48.163Z,71.50
2018-06-02T15:38:16.816Z,70.50
2018-06-02T15:40:46.243Z,70.90
2018-06-02T15:43:13.871Z,70.80
2018-06-02T15:45:41.516Z,70.70
2018-06-02T15:48:09.299Z,70.50
2018-06-02T15:50:36.939Z,70.80
2018-06-02T15:53:04.480Z,71.50
2018-06-02T15:55:32.201Z,71.90
2018-06-02T15:58:00.532Z,72.80
2018-06-02T16:00:28.168Z,73.50
2018-06-02T16:02:57.323Z,72.70
2018-06-02T16:05:24.983Z,71.80
2018-06-02T16:07:53.381Z,71.70
2018-06-02T16:10:21.170Z,71.40
2018-06-02T16:12:49.476Z,72.30
2018-06-02T16:15:20.090Z,72.80
2018-06-02T16:17:49.646Z,72.90
2018-06-02T16:20:17.362Z,72.90
2018-06-02T16:22:46.529Z,72.80
2018-06-02T16:25:14.375Z,72.80
2018-06-02T16:27:42.472Z,72.20
2018-06-02T16:30:09.963Z,71.40
2018-06-02T16:32:38.265Z,71.50
2018-06-02T16:35:05.834Z,71.20
2018-06-02T16:37:34.074Z,70.90
2018-06-02T16:40:01.575Z,71.80
2018-06-02T16:42:29.254Z,71.80
2018-06-02T16:44:57.581Z,72.50
2018-06-02T16:47:25.165Z,72.50
2018-06-02T16:49:52.682Z,73.20
2018-06-02T16:52:20.697Z,73.50
2018-06-02T16:54:48.199Z,73.40
2018-06-02T16:57:16.472Z,73.30
2018-06-02T16:59:44.800Z,73.50
2018-06-02T17:02:12.676Z,73.50
2018-06-02T17:04:40.293Z,73.70
2018-06-02T17:07:08.740Z,74.50
2018-06-02T17:09:36.374Z,74.50
2018-06-02T17:12:04.526Z,74.80
2018-06-02T17:14:32.812Z,75.00
2018-06-02T17:17:01.193Z,74.90
2018-06-02T17:19:29.496Z,74.50
2018-06-02T17:21:57.207Z,74.50
2018-06-02T17:24:24.732Z,74.60
2018-06-02T17:26:53.249Z,74.40
2018-06-02T17:29:20.765Z,74.30
2018-06-02T17:31:49.447Z,74.70
2018-06-02T17:34:17.721Z,75.00
2018-06-02T17:36:45.999Z,75.30
2018-06-02T17:39:14.314Z,75.90
2018-06-02T17:41:41.810Z,75.90
2018-06-02T17:44:09.610Z,76.60
2018-06-02T17:46:37.879Z,78.00
2018-06-02T17:49:05.366Z,78.00
2018-06-02T17:51:33.789Z,78.50
2018-06-02T17:54:01.266Z,78.50
2018-06-02T17:56:28.792Z,78.70
2018-06-02T17:58:56.336Z,78.80
2018-06-02T18:01:24.597Z,78.90
2018-06-02T18:03:53.649Z,78.90
2018-06-02T18:06:22.002Z,79.00
2018-06-02T18:08:50.306Z,78.90
2018-06-02T18:11:17.982Z,78.80
2018-06-02T18:13:45.509Z,78.60
2018-06-02T18:16:13.170Z,78.40
2018-06-02T18:18:41.446Z,78.10
2018-06-02T18:21:08.948Z,78.00
2018-06-02T18:23:36.450Z,77.80
2018-06-02T18:26:03.944Z,77.90
2018-06-02T18:28:32.254Z,79.00
2018-06-02T18:31:00.022Z,78.90
2018-06-02T18:33:27.590Z,79.30
2018-06-02T18:35:55.085Z,79.60
2018-06-02T18:38:22.602Z,79.60
2018-06-02T18:40:50.174Z,79.70
2018-06-02T18:43:18.514Z,80.00
2018-06-02T18:45:46.495Z,80.30
2018-06-02T18:48:14.781Z,80.50
2018-06-02T18:50:43.033Z,80.50
2018-06-02T18:53:11.023Z,80.50
2018-06-02T18:55:38.615Z,80.70
2018-06-02T18:58:06.887Z,81.70
2018-06-02T19:00:35.954Z,81.20
2018-06-02T19:03:03.457Z,81.20
2018-06-02T19:05:31.818Z,81.40
2018-06-02T19:07:59.316Z,81.40
2018-06-02T19:10:26.797Z,82.20
2018-06-02T19:12:54.965Z,81.80
2018-06-02T19:15:22.640Z,81.80
2018-06-02T19:17:50.211Z,82.00
2018-06-02T19:20:17.713Z,82.10
2018-06-02T19:22:45.428Z,82.20
2018-06-02T19:25:12.945Z,82.30
2018-06-02T19:27:40.466Z,82.20
2018-06-02T19:30:07.956Z,82.40
2018-06-02T19:32:35.481Z,82.30
2018-06-02T19:35:03.023Z,82.20
2018-06-02T19:37:31.279Z,82.40
2018-06-02T19:39:58.883Z,82.30
2018-06-02T19:42:26.483Z,82.50
2018-06-02T19:44:54.407Z,82.50
2018-06-02T19:47:22.659Z,82.40
2018-06-02T19:49:50.255Z,82.40
2018-06-02T19:52:17.864Z,82.20
2018-06-02T19:54:45.906Z,82.20
2018-06-02T19:57:13.408Z,82.30
2018-06-02T19:59:40.912Z,82.00
2018-06-02T20:02:09.173Z,81.80
2018-06-02T20:04:36.699Z,81.80
2018-06-02T20:07:04.196Z,81.50
2018-06-02T20:09:31.994Z,81.00
2018-06-02T20:12:00.283Z,80.70
2018-06-02T20:14:28.569Z,81.10
2018-06-02T20:16:56.214Z,81.10
2018-06-02T20:19:24.483Z,80.50
2018-06-02T20:21:51.963Z,80.60
2018-06-02T20:24:20.243Z,81.10
2018-06-02T20:26:48.522Z,81.50
2018-06-02T20:29:16.795Z,81.90
2018-06-02T20:31:45.044Z,82.10
2018-06-02T20:34:12.667Z,82.10
2018-06-02T20:36:40.466Z,82.10
2018-06-02T20:39:08.020Z,82.00
2018-06-02T20:41:35.550Z,82.20
2018-06-02T20:44:03.820Z,82.40
2018-06-02T20:46:32.093Z,82.70
2018-06-02T20:48:59.699Z,82.20
2018-06-02T20:51:28.084Z,82.40
2018-06-02T20:53:55.601Z,82.70
2018-06-02T20:56:23.426Z,82.60
2018-06-02T20:58:50.960Z,82.50
2018-06-02T21:01:19.220Z,82.20
2018-06-02T21:03:46.730Z,82.20
2018-06-02T21:06:14.281Z,82.30
2018-06-02T21:08:42.056Z,82.10
2018-06-02T21:11:09.536Z,82.20
2018-06-02T21:13:37.075Z,82.20
2018-06-02T21:16:05.324Z,82.80
2018-06-02T21:18:32.873Z,82.80
2018-06-02T21:21:00.425Z,83.00
2018-06-02T21:23:27.927Z,82.90
2018-06-02T21:25:56.191Z,83.10
2018-06-02T21:28:23.905Z,83.10
2018-06-02T21:30:51.415Z,83.50
2018-06-02T21:33:19.138Z,83.80
2018-06-02T21:35:47.157Z,83.70
2018-06-02T21:38:14.982Z,83.50
2018-06-02T21:40:42.551Z,83.20
2018-06-02T21:43:10.091Z,83.60
2018-06-02T21:45:38.363Z,83.90
2018-06-02T21:48:06.632Z,84.20
2018-06-02T21:50:34.153Z,83.80
2018-06-02T21:53:01.696Z,84.00
2018-06-02T21:55:29.241Z,84.30
2018-06-02T21:57:57.555Z,84.70
2018-06-02T22:00:25.247Z,84.60
2018-06-02T22:02:54.421Z,85.00
2018-06-02T22:05:21.963Z,85.00
2018-06-02T22:07:50.225Z,85.30
2018-06-02T22:10:17.833Z,85.30
2018-06-02T22:12:45.351Z,85.60
2018-06-02T22:15:13.161Z,85.20
2018-06-02T22:17:40.675Z,85.20
2018-06-02T22:20:08.268Z,85.30
2018-06-02T22:22:36.518Z,85.70
2018-06-02T22:25:04.062Z,85.60
2018-06-02T22:27:31.580Z,85.80
2018-06-02T22:29:59.158Z,86.10
2018-06-02T22:32:26.733Z,86.00
2018-06-02T22:34:54.244Z,86.10
2018-06-02T22:37:21.748Z,86.40
2018-06-02T22:39:49.277Z,86.10
2018-06-02T22:42:16.788Z,85.70
2018-06-02T22:44:44.348Z,85.70
2018-06-02T22:47:13.782Z,86.00
2018-06-02T22:49:41.395Z,86.40
2018-06-02T22:52:09.685Z,86.80
2018-06-02T22:54:37.249Z,86.70
2018-06-02T22:57:05.548Z,86.70
2018-06-02T22:59:33.160Z,86.70
2018-06-02T23:02:01.591Z,87.00
2018-06-02T23:04:30.517Z,86.90
2018-06-02T23:06:58.051Z,87.10
2018-06-02T23:09:25.594Z,87.30
2018-06-02T23:11:53.156Z,87.70
2018-06-02T23:14:21.468Z,88.40
2018-06-02T23:16:49.397Z,88.30
2018-06-02T23:19:17.003Z,89.00
2018-06-02T23:21:45.104Z,88.10
2018-06-02T23:24:12.842Z,88.40
2018-06-02T23:26:41.242Z,88.60
2018-06-02T23:29:08.798Z,88.80
2018-06-02T23:31:36.357Z,89.00
2018-06-02T23:34:03.853Z,89.10
2018-06-02T23:36:32.134Z,89.20
2018-06-02T23:39:00.659Z,89.30
2018-06-02T23:41:28.986Z,89.80
2018-06-02T23:43:56.524Z,89.80
2018-06-02T23:46:25.225Z,90.00
2018-06-02T23:48:52.738Z,90.00
2018-06-02T23:51:20.329Z,89.90
2018-06-02T23:53:48.593Z,89.00
2018-06-02T23:56:16.620Z,89.00
2018-06-02T23:58:44.115Z,89.20
